Aviation Digital Data Service (ADDS)

Output produced by METARs form (1338 UTC 26 May 2018)
found at http://www.aviationweather.gov/adds/metars/
 
GBYD 261300Z 26008KT CAVOK 28/18 Q1012
TAF GBYD 261130Z 2612/2718 28007KT 9999 SCT010